Observation data for Haskell on 11/16/2019      Previous  Date       Current Mesonet Observations  Soil Data  Daily Summary Page  Observations in Plain Language
KHA1 160600Z 17005KT 06/M00 A3021 RMK A01 T00561002  RH  067%=      5-min Rain = 0
KHA1 160605Z 17005KT 06/M00 A3021 RMK A01 T00561002  RH  067%=      5-min Rain = 0
KHA1 160610Z 18005KT 06/M00 A3021 RMK A01 T00561002  RH  067%=      5-min Rain = 0
KHA1 160615Z 17005KT 05/M00 A3021 RMK A01 T00541003  RH  067%=      5-min Rain = 0
KHA1 160620Z 17006KT 06/M00 A3021 RMK A01 T00551002  RH  067%=      5-min Rain = 0
KHA1 160625Z 18005KT 06/M00 A3021 RMK A01 T00561002  RH  067%=      5-min Rain = 0
KHA1 160630Z 18005KT 06/M00 A3021 RMK A01 T00551003  RH  067%=      5-min Rain = 0
KHA1 160635Z 18006KT 05/M00 A3021 RMK A01 T00541002  RH  068%=      5-min Rain = 0
KHA1 160640Z 18006KT 05/M00 A3021 RMK A01 T00541002  RH  068%=      5-min Rain = 0
KHA1 160645Z 18006KT 05/M00 A3021 RMK A01 T00541002  RH  068%=      5-min Rain = 0
KHA1 160650Z 18005KT 05/M00 A3021 RMK A01 T00531002  RH  068%=      5-min Rain = 0
KHA1 160655Z 18006KT 05/M00 A3021 RMK A01 T00531001  RH  069%=      5-min Rain = 0
KHA1 160700Z 18005KT 06/M00 A302 RMK A01 T00551001  RH  068%=      5-min Rain = 0
KHA1 160705Z 18005KT 06/M00 A302 RMK A01 T00551001  RH  068%=      5-min Rain = 0
KHA1 160710Z 18006KT 05/M00 A302 RMK A01 T00541002  RH  068%=      5-min Rain = 0
KHA1 160715Z 18005KT 05/M00 A302 RMK A01 T00531001  RH  069%=      5-min Rain = 0
KHA1 160720Z 17005KT 06/M00 A302 RMK A01 T00551001  RH  068%=      5-min Rain = 0
KHA1 160725Z 17006KT 06/00 A3019 RMK A01 T005700-0  RH  068%=      5-min Rain = 0
KHA1 160730Z 17006KT 06/M00 A3019 RMK A01 T00591002  RH  066%=      5-min Rain = 0
KHA1 160735Z 17006KT 06/M00 A3019 RMK A01 T00601003  RH  065%=      5-min Rain = 0
KHA1 160740Z 17007KT 06/M00 A3019 RMK A01 T00601004  RH  064%=      5-min Rain = 0
KHA1 160745Z 17007KT 06/M01 A3019 RMK A01 T00611005  RH  064%=      5-min Rain = 0
KHA1 160750Z 17007KT 06/M01 A3019 RMK A01 T00611005  RH  063%=      5-min Rain = 0
KHA1 160755Z 16007KT 06/M01 A3019 RMK A01 T00611005  RH  063%=      5-min Rain = 0
KHA1 160800Z 17007KT 06/M01 A3018 RMK A01 T00631006  RH  062%=      5-min Rain = 0
KHA1 160805Z 17007KT 06/M01 A3018 RMK A01 T00641007  RH  061%=      5-min Rain = 0
KHA1 160810Z 17008KT 06/M01 A3018 RMK A01 T00641007  RH  061%=      5-min Rain = 0
KHA1 160815Z 17008KT 06/M01 A3018 RMK A01 T00641008  RH  061%=      5-min Rain = 0
KHA1 160820Z 17007KT 06/M01 A3018 RMK A01 T00631008  RH  061%=      5-min Rain = 0
KHA1 160825Z 17008KT 06/M01 A3018 RMK A01 T00611008  RH  062%=      5-min Rain = 0
KHA1 160830Z 17006KT 06/M01 A3018 RMK A01 T00581008  RH  063%=      5-min Rain = 0
KHA1 160835Z 18007KT 06/M01 A3018 RMK A01 T00561008  RH  064%=      5-min Rain = 0
KHA1 160840Z 18006KT 05/M01 A3018 RMK A01 T00531008  RH  066%=      5-min Rain = 0
KHA1 160845Z 18006KT 05/M01 A3018 RMK A01 T00511007  RH  067%=      5-min Rain = 0
KHA1 160850Z 18006KT 05/M01 A3018 RMK A01 T00501007  RH  067%=      5-min Rain = 0
KHA1 160855Z 17006KT 05/M01 A3018 RMK A01 T00501006  RH  068%=      5-min Rain = 0
KHA1 160900Z 17006KT 05/M01 A3018 RMK A01 T00511006  RH  067%=      5-min Rain = 0
KHA1 160905Z 17007KT 05/M01 A3018 RMK A01 T00521006  RH  067%=      5-min Rain = 0
KHA1 160910Z 17007KT 05/M01 A3018 RMK A01 T00521006  RH  067%=      5-min Rain = 0
KHA1 160915Z 17007KT 05/M01 A3018 RMK A01 T00521006  RH  067%=      5-min Rain = 0
KHA1 160920Z 18007KT 05/M01 A3017 RMK A01 T00541005  RH  067%=      5-min Rain = 0
KHA1 160925Z 18006KT 05/M01 A3017 RMK A01 T00521006  RH  067%=      5-min Rain = 0
KHA1 160930Z 18006KT 05/M01 A3017 RMK A01 T00501007  RH  067%=      5-min Rain = 0
KHA1 160935Z 18006KT 05/M01 A3017 RMK A01 T00471006  RH  069%=      5-min Rain = 0
KHA1 160940Z 18006KT 05/M01 A3017 RMK A01 T00471006  RH  069%=      5-min Rain = 0
KHA1 160945Z 18006KT 05/M01 A3017 RMK A01 T00451006  RH  070%=      5-min Rain = 0
KHA1 160950Z 18006KT 05/M01 A3017 RMK A01 T00451005  RH  071%=      5-min Rain = 0
KHA1 160955Z 18006KT 05/M00 A3017 RMK A01 T00471004  RH  071%=      5-min Rain = 0
KHA1 161000Z 18007KT 05/M00 A3017 RMK A01 T00481004  RH  070%=      5-min Rain = 0
KHA1 161005Z 18007KT 05/M00 A3017 RMK A01 T00481004  RH  070%=      5-min Rain = 0
KHA1 161010Z 18006KT 05/M00 A3017 RMK A01 T00471004  RH  070%=      5-min Rain = 0
KHA1 161015Z 18006KT 05/M00 A3017 RMK A01 T00461004  RH  071%=      5-min Rain = 0
KHA1 161020Z 18005KT 04/M01 A3017 RMK A01 T00441005  RH  071%=      5-min Rain = 0
KHA1 161025Z 17006KT 05/M00 A3017 RMK A01 T00461004  RH  071%=      5-min Rain = 0
KHA1 161030Z 17006KT 05/M00 A3017 RMK A01 T00481003  RH  070%=      5-min Rain = 0
KHA1 161035Z 17006KT 05/M00 A3017 RMK A01 T00491003  RH  070%=      5-min Rain = 0
KHA1 161040Z 17006KT 05/M00 A3017 RMK A01 T00501003  RH  069%=      5-min Rain = 0
KHA1 161045Z 18005KT 05/M00 A3017 RMK A01 T00481004  RH  070%=      5-min Rain = 0
KHA1 161050Z 17005KT 05/M00 A3017 RMK A01 T00461004  RH  071%=      5-min Rain = 0
KHA1 161055Z 17005KT 05/M00 A3017 RMK A01 T00461003  RH  071%=      5-min Rain = 0
KHA1 161100Z 18005KT 05/M00 A3017 RMK A01 T00461004  RH  071%=      5-min Rain = 0
KHA1 161105Z 17005KT 04/M00 A3017 RMK A01 T00431004  RH  072%=      5-min Rain = 0
KHA1 161110Z 17005KT 04/M00 A3016 RMK A01 T00421004  RH  073%=      5-min Rain = 0
KHA1 161115Z 17005KT 04/M00 A3016 RMK A01 T00421003  RH  073%=      5-min Rain = 0
KHA1 161120Z 18005KT 04/M00 A3016 RMK A01 T00411003  RH  073%=      5-min Rain = 0
KHA1 161125Z 17004KT 04/M01 A3016 RMK A01 T00381005  RH  074%=      5-min Rain = 0
KHA1 161130Z 18004KT 04/M01 A3016 RMK A01 T00371005  RH  075%=      5-min Rain = 0
KHA1 161135Z 18005KT 04/M01 A3016 RMK A01 T00351005  RH  076%=      5-min Rain = 0
KHA1 161140Z 18005KT 04/M00 A3016 RMK A01 T00351004  RH  076%=      5-min Rain = 0
KHA1 161145Z 18005KT 03/M00 A3016 RMK A01 T00341004  RH  077%=      5-min Rain = 0
KHA1 161150Z 18005KT 03/M00 A3016 RMK A01 T00341004  RH  077%=      5-min Rain = 0
KHA1 161155Z 18004KT 03/M01 A3017 RMK A01 T00321005  RH  077%=      5-min Rain = 0
KHA1 161200Z 18004KT 03/M01 A3017 RMK A01 T00251010  RH  078%=      5-min Rain = 0
KHA1 161205Z 18004KT 02/M01 A3017 RMK A01 T00241008  RH  080%=      5-min Rain = 0
KHA1 161210Z 18004KT 03/M01 A3017 RMK A01 T00261006  RH  081%=      5-min Rain = 0
KHA1 161215Z 18005KT 03/M00 A3017 RMK A01 T00281004  RH  080%=      5-min Rain = 0
KHA1 161220Z 17005KT 03/M00 A3017 RMK A01 T00301003  RH  080%=      5-min Rain = 0
KHA1 161225Z 18005KT 03/M00 A3017 RMK A01 T00321003  RH  079%=      5-min Rain = 0
KHA1 161230Z 17004KT 03/M00 A3017 RMK A01 T00331003  RH  078%=      5-min Rain = 0
KHA1 161235Z 17005KT 03/M00 A3017 RMK A01 T00341003  RH  078%=      5-min Rain = 0
KHA1 161240Z 17005KT 03/M00 A3017 RMK A01 T00331004  RH  078%=      5-min Rain = 0
KHA1 161245Z 18005KT 03/M00 A3017 RMK A01 T00341003  RH  078%=      5-min Rain = 0
KHA1 161250Z 18005KT 03/M00 A3017 RMK A01 T00331004  RH  077%=      5-min Rain = 0
KHA1 161255Z 18005KT 03/M01 A3017 RMK A01 T00321005  RH  078%=      5-min Rain = 0
KHA1 161300Z 18004KT 03/M01 A3017 RMK A01 T00311005  RH  078%=      5-min Rain = 0
KHA1 161305Z 18004KT 03/M01 A3017 RMK A01 T00301005  RH  078%=      5-min Rain = 0
KHA1 161310Z 18005KT 03/M01 A3017 RMK A01 T00281006  RH  079%=      5-min Rain = 0
KHA1 161315Z 18004KT 03/M01 A3017 RMK A01 T00281006  RH  080%=      5-min Rain = 0
KHA1 161320Z 18004KT 03/M01 A3017 RMK A01 T00271006  RH  080%=      5-min Rain = 0
KHA1 161325Z 18004KT 03/M00 A3017 RMK A01 T00301003  RH  080%=      5-min Rain = 0
KHA1 161330Z 17004KT 03/00 A3017 RMK A01 T003400-0  RH  079%=      5-min Rain = 0
KHA1 161335Z 17004KT 04/00 A3017 RMK A01 T00380001  RH  078%=      5-min Rain = 0
KHA1 161340Z 17003KT 04/00 A3017 RMK A01 T00400001  RH  077%=      5-min Rain = 0
KHA1 161345Z 17004KT 04/00 A3017 RMK A01 T00430003  RH  076%=      5-min Rain = 0
KHA1 161350Z 18003KT 05/00 A3017 RMK A01 T00450003  RH  075%=      5-min Rain = 0
KHA1 161355Z 17004KT 05/00 A3017 RMK A01 T00470003  RH  074%=      5-min Rain = 0
KHA1 161400Z 17005KT 05/01 A3017 RMK A01 T00490005  RH  074%=      5-min Rain = 0
KHA1 161405Z 17005KT 05/01 A3017 RMK A01 T00540005  RH  071%=      5-min Rain = 0
KHA1 161410Z 17006KT 06/00 A3017 RMK A01 T00560004  RH  070%=      5-min Rain = 0
KHA1 161415Z 17006KT 06/00 A3017 RMK A01 T00580004  RH  069%=      5-min Rain = 0
KHA1 161420Z 18004KT 06/01 A3017 RMK A01 T00590005  RH  069%=      5-min Rain = 0
KHA1 161425Z 18005KT 06/01 A3017 RMK A01 T00600006  RH  069%=      5-min Rain = 0
KHA1 161430Z 18005KT 06/01 A3017 RMK A01 T00610008  RH  069%=      5-min Rain = 0
KHA1 161435Z 18005KT 06/01 A3017 RMK A01 T00640010  RH  069%=      5-min Rain = 0
KHA1 161440Z 18005KT 06/01 A3017 RMK A01 T00640010  RH  069%=      5-min Rain = 0
KHA1 161445Z 18005KT 07/01 A3017 RMK A01 T00650011  RH  069%=      5-min Rain = 0
KHA1 161450Z 18006KT 07/01 A3017 RMK A01 T00680013  RH  069%=      5-min Rain = 0
KHA1 161455Z 18005KT 07/02 A3017 RMK A01 T00690015  RH  069%=      5-min Rain = 0
KHA1 161500Z 18005KT 07/01 A3017 RMK A01 T00710014  RH  068%=      5-min Rain = 0
KHA1 161505Z 19006KT 07/02 A3017 RMK A01 T00740017  RH  068%=      5-min Rain = 0
KHA1 161510Z 19008KT 08/02 A3017 RMK A01 T00760015  RH  066%=      5-min Rain = 0
KHA1 161515Z 19008KT 08/02 A3017 RMK A01 T00780016  RH  065%=      5-min Rain = 0
KHA1 161520Z 19008KT 08/02 A3017 RMK A01 T00800015  RH  065%=      5-min Rain = 0
KHA1 161525Z 19007KT 08/02 A3017 RMK A01 T00830017  RH  064%=      5-min Rain = 0
KHA1 161530Z 19006KT 09/02 A3017 RMK A01 T00850017  RH  063%=      5-min Rain = 0
KHA1 161535Z 19006KT 09/02 A3016 RMK A01 T00890020  RH  063%=      5-min Rain = 0
KHA1 161540Z 19008KT 09/02 A3016 RMK A01 T00890017  RH  061%=      5-min Rain = 0
KHA1 161545Z 19008KT 09/02 A3016 RMK A01 T00920019  RH  061%=      5-min Rain = 0
KHA1 161550Z 19009KT 09/02 A3016 RMK A01 T00910017  RH  061%=      5-min Rain = 0
KHA1 161555Z 19007KT 10/02 A3017 RMK A01 T00950021  RH  061%=      5-min Rain = 0
KHA1 161600Z 18006KT 10/02 A3017 RMK A01 T00980021  RH  060%=      5-min Rain = 0
KHA1 161605Z 18005KT 10/02 A3017 RMK A01 T01000023  RH  060%=      5-min Rain = 0
KHA1 161610Z 18007KT 10/02 A3016 RMK A01 T01040023  RH  058%=      5-min Rain = 0
KHA1 161615Z 19008KT 11/02 A3016 RMK A01 T01060023  RH  057%=      5-min Rain = 0
KHA1 161620Z 18006KT 11/02 A3016 RMK A01 T01110024  RH  056%=      5-min Rain = 0
KHA1 161625Z 19007KT 12/03 A3016 RMK A01 T01150025  RH  055%=      5-min Rain = 0
KHA1 161630Z 19008KT 12/03 A3015 RMK A01 T01190026  RH  054%=      5-min Rain = 0
KHA1 161635Z 20009G14KT 12/03 A3015 RMK A01 T01240026  RH  052%=      5-min Rain = 0
KHA1 161640Z 20008KT 13/02 A3015 RMK A01 T01260024  RH  051%=      5-min Rain = 0
KHA1 161645Z 20009KT 13/03 A3015 RMK A01 T01300026  RH  050%=      5-min Rain = 0
KHA1 161650Z 20007KT 13/03 A3014 RMK A01 T01330029  RH  050%=      5-min Rain = 0
KHA1 161655Z 18007G12KT 14/03 A3014 RMK A01 T01370030  RH  049%=      5-min Rain = 0
KHA1 161700Z 20009KT 14/03 A3014 RMK A01 T01390027  RH  048%=      5-min Rain = 0
KHA1 161705Z 18007G12KT 14/03 A3013 RMK A01 T01390028  RH  048%=      5-min Rain = 0
KHA1 161710Z 18008KT 14/03 A3013 RMK A01 T01440026  RH  046%=      5-min Rain = 0
KHA1 161715Z 18008KT 15/03 A3013 RMK A01 T01490026  RH  044%=      5-min Rain = 0
KHA1 161720Z 19007KT 16/03 A3012 RMK A01 T01550027  RH  043%=      5-min Rain = 0
KHA1 161725Z 19008KT 15/03 A3012 RMK A01 T01530025  RH  043%=      5-min Rain = 0
KHA1 161730Z 19009KT 16/02 A3012 RMK A01 T01560024  RH  042%=      5-min Rain = 0
KHA1 161735Z 19009KT 16/02 A3012 RMK A01 T01560023  RH  041%=      5-min Rain = 0
KHA1 161740Z 20009KT 16/02 A3012 RMK A01 T01590024  RH  041%=      5-min Rain = 0
KHA1 161745Z 18008KT 16/03 A3011 RMK A01 T01600025  RH  041%=      5-min Rain = 0
KHA1 161750Z 19009KT 16/03 A3011 RMK A01 T01630027  RH  041%=      5-min Rain = 0
KHA1 161755Z 19009G18KT 17/03 A3011 RMK A01 T01680028  RH  040%=      5-min Rain = 0
KHA1 161800Z 19014KT 17/02 A301 RMK A01 T01740018  RH  035%=      5-min Rain = 0
KHA1 161805Z 18011G16KT 18/02 A301 RMK A01 T01770019  RH  035%=      5-min Rain = 0
KHA1 161810Z 19014KT 18/02 A3009 RMK A01 T01790016  RH  034%=      5-min Rain = 0
KHA1 161815Z 19012KT 18/02 A3009 RMK A01 T01760018  RH  035%=      5-min Rain = 0
KHA1 161820Z 19011KT 18/02 A3009 RMK A01 T01780020  RH  035%=      5-min Rain = 0
KHA1 161825Z 19011G18KT 19/02 A3008 RMK A01 T01850017  RH  033%=      5-min Rain = 0
KHA1 161830Z 19013G19KT 19/01 A3008 RMK A01 T01850011  RH  032%=      5-min Rain = 0
KHA1 161835Z 19012G17KT 19/01 A3007 RMK A01 T01860012  RH  032%=      5-min Rain = 0
KHA1 161840Z 18011KT 19/01 A3007 RMK A01 T01880012  RH  031%=      5-min Rain = 0
KHA1 161845Z 17011G16KT 18/01 A3007 RMK A01 T01840009  RH  031%=      5-min Rain = 0
KHA1 161850Z 18011G16KT 19/01 A3006 RMK A01 T01860013  RH  032%=      5-min Rain = 0
KHA1 161855Z 19011KT 19/02 A3006 RMK A01 T01850015  RH  032%=      5-min Rain = 0
KHA1 161900Z 18010G15KT 18/02 A3006 RMK A01 T01830015  RH  033%=      5-min Rain = 0
KHA1 161905Z 19010KT 19/02 A3005 RMK A01 T01870016  RH  032%=      5-min Rain = 0
KHA1 161910Z 20010KT 18/02 A3005 RMK A01 T01830015  RH  033%=      5-min Rain = 0
KHA1 161915Z 18009KT 18/02 A3005 RMK A01 T01800016  RH  034%=      5-min Rain = 0
KHA1 161920Z 18010KT 18/02 A3004 RMK A01 T01790017  RH  034%=      5-min Rain = 0
KHA1 161925Z 17009KT 18/02 A3004 RMK A01 T01780017  RH  034%=      5-min Rain = 0
KHA1 161930Z 18010KT 18/02 A3004 RMK A01 T01790019  RH  035%=      5-min Rain = 0
KHA1 161935Z 19011KT 18/02 A3004 RMK A01 T01790020  RH  035%=      5-min Rain = 0
KHA1 161940Z 18009G14KT 18/02 A3003 RMK A01 T01820022  RH  035%=      5-min Rain = 0
KHA1 161945Z 18011G17KT 18/02 A3003 RMK A01 T01830020  RH  034%=      5-min Rain = 0
KHA1 161950Z 17010KT 18/02 A3003 RMK A01 T01830019  RH  034%=      5-min Rain = 0
KHA1 161955Z 18011KT 19/02 A3003 RMK A01 T01860020  RH  033%=      5-min Rain = 0
KHA1 162000Z 17011KT 19/02 A3002 RMK A01 T01860019  RH  033%=      5-min Rain = 0
KHA1 162005Z 17011G16KT 18/02 A3002 RMK A01 T01840018  RH  034%=      5-min Rain = 0
KHA1 162010Z 18011G16KT 19/02 A3002 RMK A01 T01850020  RH  034%=      5-min Rain = 0
KHA1 162015Z 18011G16KT 18/02 A3002 RMK A01 T01830022  RH  035%=      5-min Rain = 0
KHA1 162020Z 18011G16KT 18/02 A3002 RMK A01 T01840023  RH  035%=      5-min Rain = 0
KHA1 162025Z 17010G16KT 19/02 A3002 RMK A01 T01870022  RH  034%=      5-min Rain = 0
KHA1 162030Z 18010G16KT 19/02 A3001 RMK A01 T01870022  RH  034%=      5-min Rain = 0
KHA1 162035Z 19010G15KT 19/02 A3001 RMK A01 T01900023  RH  033%=      5-min Rain = 0
KHA1 162040Z 18010KT 19/02 A3001 RMK A01 T01900021  RH  033%=      5-min Rain = 0
KHA1 162045Z 16009KT 19/02 A3001 RMK A01 T01890017  RH  032%=      5-min Rain = 0
KHA1 162050Z 16010KT 18/01 A3001 RMK A01 T01840014  RH  032%=      5-min Rain = 0
KHA1 162055Z 17007G12KT 18/02 A3001 RMK A01 T01810015  RH  033%=      5-min Rain = 0
KHA1 162100Z 17010G16KT 19/02 A3001 RMK A01 T01850021  RH  034%=      5-min Rain = 0
KHA1 162105Z 17011KT 19/03 A3001 RMK A01 T01890025  RH  034%=      5-min Rain = 0
KHA1 162110Z 17010G15KT 19/02 A3001 RMK A01 T01890024  RH  034%=      5-min Rain = 0
KHA1 162115Z 16009KT 19/02 A30 RMK A01 T01910024  RH  033%=      5-min Rain = 0
KHA1 162120Z 17010KT 19/02 A30 RMK A01 T01900022  RH  033%=      5-min Rain = 0
KHA1 162125Z 17010KT 19/02 A30 RMK A01 T01870020  RH  033%=      5-min Rain = 0
KHA1 162130Z 17010G15KT 18/02 A30 RMK A01 T01830020  RH  034%=      5-min Rain = 0
KHA1 162135Z 17009G15KT 18/02 A30 RMK A01 T01830022  RH  035%=      5-min Rain = 0
KHA1 162140Z 17010G16KT 18/02 A30 RMK A01 T01810023  RH  035%=      5-min Rain = 0
KHA1 162145Z 17010KT 18/02 A30 RMK A01 T01800023  RH  036%=      5-min Rain = 0
KHA1 162150Z 17011G16KT 18/02 A30 RMK A01 T01790022  RH  036%=      5-min Rain = 0
KHA1 162155Z 17011G17KT 18/02 A30 RMK A01 T01770023  RH  036%=      5-min Rain = 0
KHA1 162200Z 17011KT 18/02 A30 RMK A01 T01770023  RH  036%=      5-min Rain = 0
KHA1 162205Z 17009G15KT 18/03 A30 RMK A01 T01800025  RH  036%=      5-min Rain = 0
KHA1 162210Z 18010G15KT 18/02 A30 RMK A01 T01830023  RH  035%=      5-min Rain = 0
KHA1 162215Z 17009KT 19/02 A2999 RMK A01 T01870022  RH  034%=      5-min Rain = 0
KHA1 162220Z 16010KT 19/02 A2999 RMK A01 T01880020  RH  033%=      5-min Rain = 0
KHA1 162225Z 17010G17KT 19/02 A2999 RMK A01 T01890020  RH  033%=      5-min Rain = 0
KHA1 162230Z 17011KT 19/02 A2999 RMK A01 T01890020  RH  033%=      5-min Rain = 0
KHA1 162235Z 17010KT 19/02 A2999 RMK A01 T01880021  RH  033%=      5-min Rain = 0
KHA1 162240Z 17008KT 19/02 A2999 RMK A01 T01880023  RH  034%=      5-min Rain = 0
KHA1 162245Z 16008KT 19/02 A2998 RMK A01 T01860022  RH  034%=      5-min Rain = 0
KHA1 162250Z 16010KT 18/02 A2998 RMK A01 T01840022  RH  034%=      5-min Rain = 0
KHA1 162255Z 17008KT 18/02 A2999 RMK A01 T01820022  RH  035%=      5-min Rain = 0
KHA1 162300Z 16008KT 18/02 A2999 RMK A01 T01790022  RH  035%=      5-min Rain = 0
KHA1 162305Z 17007G12KT 18/02 A2999 RMK A01 T01770021  RH  036%=      5-min Rain = 0
KHA1 162310Z 16007KT 18/02 A2999 RMK A01 T01770021  RH  036%=      5-min Rain = 0
KHA1 162315Z 16006KT 18/02 A2998 RMK A01 T01750022  RH  036%=      5-min Rain = 0
KHA1 162320Z 16006G11KT 17/02 A2998 RMK A01 T01730022  RH  037%=      5-min Rain = 0
KHA1 162325Z 16007KT 17/02 A2998 RMK A01 T01730023  RH  037%=      5-min Rain = 0
KHA1 162330Z 16007KT 17/02 A2998 RMK A01 T01710023  RH  038%=      5-min Rain = 0
KHA1 162335Z 17007KT 17/02 A2998 RMK A01 T01690024  RH  038%=      5-min Rain = 0
KHA1 162340Z 16007KT 17/02 A2999 RMK A01 T01670024  RH  039%=      5-min Rain = 0
KHA1 162345Z 17007KT 17/02 A2999 RMK A01 T01660024  RH  039%=      5-min Rain = 0
KHA1 162350Z 17006KT 16/03 A2999 RMK A01 T01630025  RH  040%=      5-min Rain = 0
KHA1 162355Z 17007KT 16/03 A2999 RMK A01 T01600025  RH  041%=      5-min Rain = 0
KHA1 170000Z 16006KT 16/03 A2999 RMK A01 T01590025  RH  041%=      5-min Rain = 0
KHA1 170005Z 16007KT 16/03 A2999 RMK A01 T01580026  RH  042%=      5-min Rain = 0
KHA1 170010Z 16007KT 16/03 A2999 RMK A01 T01580026  RH  042%=      5-min Rain = 0
KHA1 170015Z 16007KT 16/03 A2999 RMK A01 T01550026  RH  042%=      5-min Rain = 0
KHA1 170020Z 16007KT 15/03 A2999 RMK A01 T01530026  RH  043%=      5-min Rain = 0
KHA1 170025Z 16008KT 15/03 A2999 RMK A01 T01540026  RH  043%=      5-min Rain = 0
KHA1 170030Z 16008KT 15/02 A2999 RMK A01 T01540024  RH  042%=      5-min Rain = 0
KHA1 170035Z 16009KT 16/02 A2999 RMK A01 T01560023  RH  041%=      5-min Rain = 0
KHA1 170040Z 16008G13KT 16/02 A2999 RMK A01 T01550022  RH  041%=      5-min Rain = 0
KHA1 170045Z 15009KT 16/02 A2999 RMK A01 T01550021  RH  041%=      5-min Rain = 0
KHA1 170050Z 15009KT 15/02 A2999 RMK A01 T01520021  RH  042%=      5-min Rain = 0
KHA1 170055Z 15010KT 15/02 A2999 RMK A01 T01520018  RH  041%=      5-min Rain = 0
KHA1 170100Z 16009KT 15/02 A2999 RMK A01 T01510015  RH  040%=      5-min Rain = 0
KHA1 170105Z 16009KT 15/01 A2999 RMK A01 T01510011  RH  039%=      5-min Rain = 0
KHA1 170110Z 16009KT 15/01 A2999 RMK A01 T01520007  RH  038%=      5-min Rain = 0
KHA1 170115Z 15010G15KT 15/00 A2999 RMK A01 T01510004  RH  037%=      5-min Rain = 0
KHA1 170120Z 15009G15KT 15/00 A2999 RMK A01 T01500002  RH  037%=      5-min Rain = 0
KHA1 170125Z 15010KT 15/00 A2999 RMK A01 T01480001  RH  037%=      5-min Rain = 0
KHA1 170130Z 15008G13KT 15/00 A2999 RMK A01 T01450001  RH  038%=      5-min Rain = 0
KHA1 170135Z 15008KT 14/00 A2999 RMK A01 T01420001  RH  039%=      5-min Rain = 0
KHA1 170140Z 14008KT 14/00 A2999 RMK A01 T01380002  RH  040%=      5-min Rain = 0
KHA1 170145Z 15008KT 14/00 A2999 RMK A01 T01350002  RH  040%=      5-min Rain = 0
KHA1 170150Z 15008KT 13/00 A2999 RMK A01 T01330001  RH  041%=      5-min Rain = 0
KHA1 170155Z 15008KT 13/00 A2999 RMK A01 T01310000  RH  041%=      5-min Rain = 0
KHA1 170200Z 15008G13KT 13/M00 A2999 RMK A01 T01311001  RH  041%=      5-min Rain = 0
KHA1 170205Z 15007KT 13/00 A2999 RMK A01 T012800-0  RH  042%=      5-min Rain = 0
KHA1 170210Z 15008KT 13/M00 A2999 RMK A01 T01271001  RH  042%=      5-min Rain = 0
KHA1 170215Z 15007KT 13/M00 A2999 RMK A01 T01261001  RH  042%=      5-min Rain = 0
KHA1 170220Z 15007KT 12/M00 A2999 RMK A01 T01241001  RH  043%=      5-min Rain = 0
KHA1 170225Z 15008G13KT 12/M00 A2998 RMK A01 T01231001  RH  043%=      5-min Rain = 0
KHA1 170230Z 15007KT 12/M00 A2998 RMK A01 T01231001  RH  043%=      5-min Rain = 0
KHA1 170235Z 15007KT 12/M00 A2998 RMK A01 T01221001  RH  043%=      5-min Rain = 0
KHA1 170240Z 15008KT 12/M00 A2998 RMK A01 T01211002  RH  043%=      5-min Rain = 0
KHA1 170245Z 15008KT 12/M00 A2998 RMK A01 T01211002  RH  043%=      5-min Rain = 0
KHA1 170250Z 16007KT 12/M00 A2998 RMK A01 T01211002  RH  043%=      5-min Rain = 0
KHA1 170255Z 16009KT 12/M00 A2998 RMK A01 T01201002  RH  043%=      5-min Rain = 0
KHA1 170300Z 16008KT 12/M00 A2998 RMK A01 T01201001  RH  044%=      5-min Rain = 0
KHA1 170305Z 16009KT 12/00 A2998 RMK A01 T012000-0  RH  044%=      5-min Rain = 0
KHA1 170310Z 16009KT 12/00 A2998 RMK A01 T01200000  RH  044%=      5-min Rain = 0
KHA1 170315Z 16009KT 12/00 A2998 RMK A01 T01200001  RH  044%=      5-min Rain = 0
KHA1 170320Z 16009KT 12/00 A2998 RMK A01 T01200001  RH  045%=      5-min Rain = 0
KHA1 170325Z 16010KT 12/00 A2998 RMK A01 T01200002  RH  045%=      5-min Rain = 0
KHA1 170330Z 17010G16KT 12/00 A2998 RMK A01 T01200002  RH  045%=      5-min Rain = 0
KHA1 170335Z 16010KT 12/00 A2998 RMK A01 T01190002  RH  045%=      5-min Rain = 0
KHA1 170340Z 16009G14KT 12/00 A2998 RMK A01 T01180003  RH  046%=      5-min Rain = 0
KHA1 170345Z 17009KT 12/00 A2998 RMK A01 T01170003  RH  046%=      5-min Rain = 0
KHA1 170350Z 17009KT 12/00 A2997 RMK A01 T01150004  RH  047%=      5-min Rain = 0
KHA1 170355Z 16010KT 11/00 A2997 RMK A01 T01140004  RH  047%=      5-min Rain = 0
KHA1 170400Z 17009G14KT 11/00 A2997 RMK A01 T01130004  RH  048%=      5-min Rain = 0
KHA1 170405Z 17009G15KT 11/01 A2997 RMK A01 T01100005  RH  049%=      5-min Rain = 0
KHA1 170410Z 17010G15KT 11/01 A2998 RMK A01 T01080005  RH  050%=      5-min Rain = 0
KHA1 170415Z 17010G15KT 11/01 A2998 RMK A01 T01070005  RH  050%=      5-min Rain = 0
KHA1 170420Z 17009KT 10/01 A2997 RMK A01 T01040006  RH  051%=      5-min Rain = 0
KHA1 170425Z 17010G15KT 10/01 A2997 RMK A01 T01040006  RH  052%=      5-min Rain = 0
KHA1 170430Z 17010KT 10/01 A2997 RMK A01 T01030006  RH  052%=      5-min Rain = 0
KHA1 170435Z 17010KT 10/01 A2997 RMK A01 T01030007  RH  052%=      5-min Rain = 0
KHA1 170440Z 17009KT 10/01 A2997 RMK A01 T01020007  RH  052%=      5-min Rain = 0
KHA1 170445Z 17009KT 10/01 A2997 RMK A01 T01010007  RH  053%=      5-min Rain = 0
KHA1 170450Z 17009KT 10/01 A2997 RMK A01 T01010007  RH  053%=      5-min Rain = 0
KHA1 170455Z 17008KT 10/01 A2997 RMK A01 T00990008  RH  054%=      5-min Rain = 0
KHA1 170500Z 17008KT 10/01 A2997 RMK A01 T00980008  RH  054%=      5-min Rain = 0
KHA1 170505Z 17008KT 10/01 A2997 RMK A01 T00960008  RH  055%=      5-min Rain = 0
KHA1 170510Z 17008KT 10/01 A2998 RMK A01 T00950009  RH  056%=      5-min Rain = 0
KHA1 170515Z 17007KT 09/01 A2998 RMK A01 T00940009  RH  056%=      5-min Rain = 0
KHA1 170520Z 17007KT 09/01 A2998 RMK A01 T00930010  RH  057%=      5-min Rain = 0
KHA1 170525Z 17007KT 09/01 A2998 RMK A01 T00920010  RH  057%=      5-min Rain = 0
KHA1 170530Z 17006KT 09/01 A2998 RMK A01 T00920010  RH  058%=      5-min Rain = 0
KHA1 170535Z 17007KT 09/01 A2998 RMK A01 T00920011  RH  058%=      5-min Rain = 0
KHA1 170540Z 17007KT 09/01 A2998 RMK A01 T00920011  RH  058%=      5-min Rain = 0
KHA1 170545Z 17007KT 09/01 A2997 RMK A01 T00920012  RH  058%=      5-min Rain = 0
KHA1 170550Z 17007KT 09/01 A2997 RMK A01 T00940012  RH  057%=      5-min Rain = 0
KHA1 170555Z 17007KT 10/01 A2997 RMK A01 T00950012  RH  057%=      5-min Rain = 0

Page generated in 0.0088 seconds.